createdAt,value
2023-12-30T00:00:39.072Z,7.20
2023-12-30T00:01:41.867Z,7.26
2023-12-30T00:02:44.167Z,7.17
2023-12-30T00:03:46.719Z,7.14
2023-12-30T00:04:49.091Z,7.15
2023-12-30T00:05:51.330Z,7.11
2023-12-30T00:06:53.580Z,7.07
2023-12-30T00:07:55.804Z,7.10
2023-12-30T00:08:58.005Z,7.05
2023-12-30T00:10:00.391Z,7.03
2023-12-30T00:11:02.637Z,7.09
2023-12-30T00:12:05.304Z,7.06
2023-12-30T00:13:07.533Z,7.05
2023-12-30T00:14:10.197Z,7.00
2023-12-30T00:15:12.437Z,7.04
2023-12-30T00:16:15.218Z,7.05
2023-12-30T00:17:17.631Z,7.09
2023-12-30T00:18:19.951Z,7.16
2023-12-30T00:19:22.421Z,7.08
2023-12-30T00:20:26.933Z,7.12
2023-12-30T00:21:29.197Z,7.09
2023-12-30T00:22:31.451Z,7.07
2023-12-30T00:23:40.849Z,7.04
2023-12-30T00:24:47.811Z,7.04
2023-12-30T00:25:50.068Z,7.09
2023-12-30T00:26:52.317Z,7.02
2023-12-30T00:27:54.675Z,6.94
2023-12-30T00:28:58.042Z,7.03
2023-12-30T00:30:00.381Z,7.11
2023-12-30T00:31:02.958Z,7.15
2023-12-30T00:32:05.681Z,7.09
2023-12-30T00:33:08.044Z,7.12
2023-12-30T00:34:10.734Z,7.15
2023-12-30T00:35:13.133Z,7.19
2023-12-30T00:36:15.405Z,7.20
2023-12-30T00:37:21.203Z,7.23
2023-12-30T00:38:24.481Z,7.20
2023-12-30T00:39:27.395Z,7.24
2023-12-30T00:40:29.713Z,7.23
2023-12-30T00:41:31.900Z,7.29
2023-12-30T00:42:34.100Z,7.33
2023-12-30T00:43:38.287Z,7.41
2023-12-30T00:44:40.525Z,7.29
2023-12-30T00:45:42.741Z,7.34
2023-12-30T00:46:49.418Z,7.43
2023-12-30T00:47:51.821Z,7.45
2023-12-30T00:48:57.467Z,7.39
2023-12-30T00:50:01.652Z,7.46
2023-12-30T00:51:04.183Z,7.50
2023-12-30T00:52:06.663Z,7.43
2023-12-30T00:53:08.876Z,7.46
2023-12-30T00:54:11.087Z,7.48
2023-12-30T00:55:13.440Z,7.49
2023-12-30T00:56:15.694Z,7.51
2023-12-30T00:57:18.040Z,7.52
2023-12-30T00:58:20.340Z,7.59
2023-12-30T00:59:22.547Z,7.51
2023-12-30T01:00:24.812Z,7.47
2023-12-30T01:01:27.095Z,7.53
2023-12-30T01:02:29.391Z,7.45
2023-12-30T01:03:31.645Z,7.39
2023-12-30T01:04:34.059Z,7.32
2023-12-30T01:05:36.344Z,7.25
2023-12-30T01:06:38.907Z,7.28
2023-12-30T01:07:41.159Z,7.28
2023-12-30T01:08:43.377Z,7.26
2023-12-30T01:09:45.676Z,7.23
2023-12-30T01:10:47.901Z,7.25
2023-12-30T01:11:50.126Z,7.24
2023-12-30T01:12:52.384Z,7.26
2023-12-30T01:13:54.565Z,7.27
2023-12-30T01:14:56.880Z,7.20
2023-12-30T01:15:59.145Z,7.27
2023-12-30T01:17:01.415Z,7.24
2023-12-30T01:18:04.607Z,7.28
2023-12-30T01:19:07.084Z,7.26
2023-12-30T01:20:10.780Z,7.26
2023-12-30T01:21:14.233Z,7.22
2023-12-30T01:22:16.477Z,7.16
2023-12-30T01:23:18.766Z,7.10
2023-12-30T01:24:20.991Z,7.17
2023-12-30T01:25:23.485Z,7.01
2023-12-30T01:26:25.707Z,7.09
2023-12-30T01:27:27.890Z,7.09
2023-12-30T01:28:30.170Z,7.14
2023-12-30T01:29:32.358Z,7.07
2023-12-30T01:30:37.195Z,7.08
2023-12-30T01:31:40.249Z,7.13
2023-12-30T01:32:42.636Z,7.06
2023-12-30T01:33:45.033Z,7.07
2023-12-30T01:34:47.275Z,7.08
2023-12-30T01:35:49.506Z,7.09
2023-12-30T01:36:51.817Z,7.07
2023-12-30T01:37:54.470Z,7.09
2023-12-30T01:38:56.685Z,7.11
2023-12-30T01:39:59.622Z,7.10
2023-12-30T01:41:01.817Z,7.05
2023-12-30T01:42:04.312Z,7.07
2023-12-30T01:43:08.019Z,7.03
2023-12-30T01:44:10.358Z,6.98
2023-12-30T01:45:13.197Z,6.98
2023-12-30T01:46:15.502Z,7.00
2023-12-30T01:47:18.191Z,7.06
2023-12-30T01:48:22.036Z,7.10
2023-12-30T01:49:24.548Z,7.03
2023-12-30T01:50:27.569Z,7.10
2023-12-30T01:51:29.830Z,7.04
2023-12-30T01:52:34.502Z,7.19
2023-12-30T01:53:40.245Z,7.18
2023-12-30T01:54:43.559Z,6.98
2023-12-30T01:55:51.324Z,7.18
2023-12-30T01:56:54.292Z,6.99
2023-12-30T01:57:56.541Z,7.04
2023-12-30T01:59:00.552Z,7.11
2023-12-30T02:00:04.215Z,6.99
2023-12-30T02:01:16.438Z,7.04
2023-12-30T02:02:18.946Z,6.95
2023-12-30T02:03:23.791Z,7.10
2023-12-30T02:04:26.216Z,6.94
2023-12-30T02:05:28.996Z,7.01
2023-12-30T02:06:31.177Z,7.05
2023-12-30T02:07:33.392Z,7.00
2023-12-30T02:08:35.688Z,6.99
2023-12-30T02:09:40.458Z,7.03
2023-12-30T02:10:45.035Z,7.08
2023-12-30T02:11:47.468Z,7.04
2023-12-30T02:12:49.798Z,7.09
2023-12-30T02:13:52.028Z,7.05
2023-12-30T02:14:54.313Z,7.05
2023-12-30T02:15:56.584Z,7.07
2023-12-30T02:16:59.156Z,7.05
2023-12-30T02:18:02.178Z,6.99
2023-12-30T02:19:04.560Z,7.10
2023-12-30T02:20:07.527Z,7.11
2023-12-30T02:21:09.741Z,7.05
2023-12-30T02:22:12.081Z,6.98
2023-12-30T02:23:14.362Z,7.07
2023-12-30T02:24:17.338Z,7.02
2023-12-30T02:25:19.717Z,7.04
2023-12-30T02:26:22.235Z,7.07
2023-12-30T02:27:24.427Z,7.05
2023-12-30T02:28:26.788Z,7.07
2023-12-30T02:29:29.036Z,7.11
2023-12-30T02:30:31.303Z,7.11
2023-12-30T02:31:34.523Z,7.04
2023-12-30T02:32:36.781Z,7.01
2023-12-30T02:33:39.985Z,7.08
2023-12-30T02:34:42.230Z,7.05
2023-12-30T02:35:44.756Z,7.03
2023-12-30T02:36:48.556Z,7.03
2023-12-30T02:37:50.862Z,7.00
2023-12-30T02:38:53.110Z,6.95
2023-12-30T02:39:55.437Z,7.00
2023-12-30T02:40:57.699Z,6.95
2023-12-30T02:41:59.932Z,6.92
2023-12-30T02:43:02.658Z,6.91
2023-12-30T02:44:06.049Z,6.99
2023-12-30T02:45:09.042Z,7.05
2023-12-30T02:46:11.330Z,6.91
2023-12-30T02:47:13.538Z,6.96
2023-12-30T02:48:15.846Z,6.92
2023-12-30T02:49:18.180Z,6.94
2023-12-30T02:50:20.444Z,6.94
2023-12-30T02:51:22.678Z,6.91
2023-12-30T02:52:24.950Z,6.93
2023-12-30T02:53:27.216Z,6.89
2023-12-30T02:54:30.186Z,6.93
2023-12-30T02:55:32.505Z,6.91
2023-12-30T02:56:34.754Z,6.89
2023-12-30T02:57:48.313Z,6.92
2023-12-30T02:58:57.473Z,7.17
2023-12-30T02:59:59.729Z,6.95
2023-12-30T03:01:02.048Z,6.90
2023-12-30T03:02:04.612Z,6.94
2023-12-30T03:03:06.939Z,6.86
2023-12-30T03:04:09.269Z,6.88
2023-12-30T03:05:11.981Z,6.90
2023-12-30T03:06:16.035Z,7.00
2023-12-30T03:07:19.099Z,6.92
2023-12-30T03:08:21.369Z,6.96
2023-12-30T03:09:23.891Z,7.07
2023-12-30T03:10:26.563Z,7.08
2023-12-30T03:11:28.999Z,7.07
2023-12-30T03:12:31.198Z,7.13
2023-12-30T03:13:33.528Z,7.17
2023-12-30T03:14:36.637Z,7.19
2023-12-30T03:15:38.855Z,7.25
2023-12-30T03:16:41.094Z,7.23
2023-12-30T03:17:43.352Z,7.28
2023-12-30T03:18:46.865Z,7.40
2023-12-30T03:19:49.648Z,7.26
2023-12-30T03:20:52.097Z,7.28
2023-12-30T03:21:55.594Z,7.29
2023-12-30T03:22:57.847Z,7.33
2023-12-30T03:24:00.861Z,7.38
2023-12-30T03:25:08.617Z,7.52
2023-12-30T03:26:13.000Z,7.42
2023-12-30T03:27:15.185Z,7.40
2023-12-30T03:28:17.497Z,7.42
2023-12-30T03:29:21.137Z,7.37
2023-12-30T03:30:23.424Z,7.44
2023-12-30T03:31:28.596Z,7.46
2023-12-30T03:32:31.283Z,7.39
2023-12-30T03:33:33.938Z,7.30
2023-12-30T03:34:36.181Z,7.34
2023-12-30T03:35:38.759Z,7.40
2023-12-30T03:36:40.937Z,7.41
2023-12-30T03:37:43.287Z,7.42
2023-12-30T03:38:47.973Z,7.48
2023-12-30T03:39:50.278Z,7.50
2023-12-30T03:40:52.541Z,7.53
2023-12-30T03:41:54.802Z,7.54
2023-12-30T03:42:56.996Z,7.49
2023-12-30T03:43:59.247Z,7.51
2023-12-30T03:45:02.587Z,7.63
2023-12-30T03:46:05.016Z,7.51
2023-12-30T03:47:07.347Z,7.57
2023-12-30T03:48:10.516Z,7.57
2023-12-30T03:49:12.870Z,7.57
2023-12-30T03:50:15.238Z,7.54
2023-12-30T03:51:17.530Z,7.56
2023-12-30T03:52:19.815Z,7.55
2023-12-30T03:53:22.029Z,7.56
2023-12-30T03:54:24.254Z,7.58
2023-12-30T03:55:26.460Z,7.58
2023-12-30T03:56:28.647Z,7.60
2023-12-30T03:57:30.860Z,7.58
2023-12-30T03:58:33.224Z,7.51
2023-12-30T03:59:37.907Z,7.75
2023-12-30T04:00:40.121Z,7.67
2023-12-30T04:01:44.501Z,7.83
2023-12-30T04:02:48.394Z,7.61
2023-12-30T04:03:50.742Z,7.56
2023-12-30T04:04:52.993Z,7.57
2023-12-30T04:05:55.194Z,7.56
2023-12-30T04:06:57.968Z,7.68
2023-12-30T04:08:00.453Z,7.60
2023-12-30T04:09:03.170Z,7.56
2023-12-30T04:10:06.161Z,7.56
2023-12-30T04:11:08.411Z,7.55
2023-12-30T04:12:10.972Z,7.50
2023-12-30T04:13:13.272Z,7.53
2023-12-30T04:14:15.476Z,7.55
2023-12-30T04:15:17.755Z,7.50
2023-12-30T04:16:20.112Z,7.48
2023-12-30T04:17:22.585Z,7.55
2023-12-30T04:18:24.897Z,7.47
2023-12-30T04:19:27.187Z,7.57
2023-12-30T04:20:29.395Z,7.51
2023-12-30T04:21:31.590Z,7.53
2023-12-30T04:22:34.594Z,7.57
2023-12-30T04:23:36.889Z,7.57
2023-12-30T04:24:39.229Z,7.48
2023-12-30T04:25:41.697Z,7.47
2023-12-30T04:26:44.489Z,7.54
2023-12-30T04:27:46.839Z,7.53
2023-12-30T04:28:49.486Z,7.55
2023-12-30T04:29:52.228Z,7.55
2023-12-30T04:30:54.765Z,7.51
2023-12-30T04:31:57.014Z,7.44
2023-12-30T04:32:59.348Z,7.49
2023-12-30T04:34:01.735Z,7.56
2023-12-30T04:35:04.623Z,7.51
2023-12-30T04:36:08.240Z,7.53
2023-12-30T04:37:11.039Z,7.46
2023-12-30T04:38:13.494Z,7.48
2023-12-30T04:39:15.772Z,7.47
2023-12-30T04:40:18.184Z,7.52
2023-12-30T04:41:20.838Z,7.59
2023-12-30T04:42:23.023Z,7.50
2023-12-30T04:43:25.354Z,7.48
2023-12-30T04:44:28.112Z,7.40
2023-12-30T04:45:30.338Z,7.40
2023-12-30T04:46:32.590Z,7.44
2023-12-30T04:47:34.912Z,7.45
2023-12-30T04:48:37.221Z,7.36
2023-12-30T04:49:39.595Z,7.36
2023-12-30T04:50:41.917Z,7.38
2023-12-30T04:51:44.106Z,7.37
2023-12-30T04:52:48.195Z,7.39
2023-12-30T04:53:50.493Z,7.37
2023-12-30T04:54:52.755Z,7.40
2023-12-30T04:55:54.983Z,7.51
2023-12-30T04:56:57.553Z,7.45
2023-12-30T04:58:01.460Z,7.45
2023-12-30T04:59:03.831Z,7.39
2023-12-30T05:00:06.784Z,7.42
2023-12-30T05:01:18.072Z,7.34
2023-12-30T05:02:20.295Z,7.33
2023-12-30T05:03:22.717Z,7.33
2023-12-30T05:04:24.931Z,7.25
2023-12-30T05:05:27.303Z,7.25
2023-12-30T05:06:30.548Z,7.11
2023-12-30T05:07:32.779Z,7.04
2023-12-30T05:08:35.108Z,7.05
2023-12-30T05:09:37.356Z,7.05
2023-12-30T05:10:39.702Z,7.09
2023-12-30T05:11:45.523Z,7.21
2023-12-30T05:12:47.813Z,7.01
2023-12-30T05:13:50.331Z,7.04
2023-12-30T05:14:52.564Z,7.03
2023-12-30T05:15:54.820Z,6.96
2023-12-30T05:16:57.057Z,6.98
2023-12-30T05:17:59.556Z,7.02
2023-12-30T05:19:02.000Z,6.99
2023-12-30T05:20:05.526Z,6.98
2023-12-30T05:21:17.828Z,7.21
2023-12-30T05:22:20.145Z,6.97
2023-12-30T05:23:22.311Z,6.91
2023-12-30T05:24:24.654Z,6.83
2023-12-30T05:25:26.948Z,6.82
2023-12-30T05:26:30.446Z,6.89
2023-12-30T05:27:32.943Z,6.88
2023-12-30T05:28:35.441Z,6.85
2023-12-30T05:29:38.417Z,6.82
2023-12-30T05:30:41.389Z,6.81
2023-12-30T05:31:43.616Z,6.81
2023-12-30T05:32:45.914Z,6.87
2023-12-30T05:33:48.298Z,6.79
2023-12-30T05:34:50.561Z,6.77
2023-12-30T05:35:52.997Z,6.81
2023-12-30T05:36:55.240Z,6.79
2023-12-30T05:37:57.507Z,6.82
2023-12-30T05:38:59.828Z,6.81
2023-12-30T05:40:02.568Z,6.90
2023-12-30T05:41:04.956Z,6.74
2023-12-30T05:42:07.325Z,6.81
2023-12-30T05:43:09.627Z,6.74
2023-12-30T05:44:11.985Z,6.72
2023-12-30T05:45:14.344Z,6.75
2023-12-30T05:46:17.814Z,6.86
2023-12-30T05:47:20.339Z,6.78
2023-12-30T05:48:22.707Z,6.76
2023-12-30T05:49:25.035Z,6.75
2023-12-30T05:50:28.814Z,6.70
2023-12-30T05:51:30.984Z,6.74
2023-12-30T05:52:33.269Z,6.75
2023-12-30T05:53:35.596Z,6.73
2023-12-30T05:54:37.829Z,6.66
2023-12-30T05:55:40.173Z,6.68
2023-12-30T05:56:42.447Z,6.72
2023-12-30T05:57:44.656Z,6.70
2023-12-30T05:58:46.921Z,6.78
2023-12-30T05:59:49.147Z,6.78
2023-12-30T06:00:51.383Z,6.80
2023-12-30T06:01:53.769Z,6.81
2023-12-30T06:02:55.949Z,6.90
2023-12-30T06:03:59.575Z,6.83
2023-12-30T06:05:01.859Z,6.83
2023-12-30T06:06:04.553Z,6.81
2023-12-30T06:07:06.835Z,6.75
2023-12-30T06:08:09.081Z,6.78
2023-12-30T06:09:12.738Z,6.69
2023-12-30T06:10:15.206Z,6.63
2023-12-30T06:11:17.552Z,6.65
2023-12-30T06:12:19.892Z,6.63
2023-12-30T06:13:22.195Z,6.69
2023-12-30T06:14:24.542Z,6.76
2023-12-30T06:15:27.114Z,6.75
2023-12-30T06:16:29.327Z,6.66
2023-12-30T06:17:31.741Z,6.66
2023-12-30T06:18:34.076Z,6.64
2023-12-30T06:19:36.516Z,6.66
2023-12-30T06:20:38.784Z,6.63
2023-12-30T06:21:41.127Z,6.63
2023-12-30T06:22:43.342Z,6.61
2023-12-30T06:23:45.640Z,6.64
2023-12-30T06:24:48.006Z,6.61
2023-12-30T06:25:50.204Z,6.57
2023-12-30T06:26:53.023Z,6.58
2023-12-30T06:27:55.198Z,6.61
2023-12-30T06:28:57.583Z,6.61
2023-12-30T06:30:00.008Z,6.62
2023-12-30T06:31:02.340Z,6.58
2023-12-30T06:32:04.866Z,6.66
2023-12-30T06:33:09.936Z,6.59
2023-12-30T06:34:12.513Z,6.56
2023-12-30T06:35:14.738Z,6.63
2023-12-30T06:36:22.327Z,6.81
2023-12-30T06:37:24.591Z,6.57
2023-12-30T06:38:26.747Z,6.50
2023-12-30T06:39:29.036Z,6.51
2023-12-30T06:40:31.303Z,6.50
2023-12-30T06:41:33.548Z,6.52
2023-12-30T06:42:35.729Z,6.57
2023-12-30T06:43:37.974Z,6.50
2023-12-30T06:44:40.241Z,6.50
2023-12-30T06:45:42.506Z,6.48
2023-12-30T06:46:44.686Z,6.57
2023-12-30T06:47:46.868Z,6.50
2023-12-30T06:48:49.231Z,6.47
2023-12-30T06:49:51.463Z,6.49
2023-12-30T06:50:55.348Z,6.46
2023-12-30T06:51:57.653Z,6.50
2023-12-30T06:53:00.551Z,6.53
2023-12-30T06:54:03.139Z,6.52
2023-12-30T06:55:17.980Z,6.56
2023-12-30T06:56:23.258Z,6.52
2023-12-30T06:57:26.502Z,6.49
2023-12-30T06:58:30.309Z,6.57
2023-12-30T06:59:32.745Z,6.54
2023-12-30T07:00:35.103Z,6.53
2023-12-30T07:01:40.661Z,6.48
2023-12-30T07:02:43.253Z,6.50
2023-12-30T07:03:45.512Z,6.51
2023-12-30T07:04:48.055Z,6.48
2023-12-30T07:05:50.273Z,6.47
2023-12-30T07:06:52.506Z,6.51
2023-12-30T07:07:54.713Z,6.53
2023-12-30T07:08:56.936Z,6.47
2023-12-30T07:09:59.160Z,6.49
2023-12-30T07:11:01.380Z,6.45
2023-12-30T07:12:04.025Z,6.47
2023-12-30T07:13:09.136Z,6.69
2023-12-30T07:14:11.588Z,6.52
2023-12-30T07:15:13.926Z,6.55
2023-12-30T07:16:20.099Z,6.62
2023-12-30T07:17:22.460Z,6.60
2023-12-30T07:18:24.788Z,6.65
2023-12-30T07:19:27.772Z,6.72
2023-12-30T07:20:30.002Z,6.71
2023-12-30T07:21:32.165Z,6.67
2023-12-30T07:22:34.426Z,6.73
2023-12-30T07:23:36.673Z,6.68
2023-12-30T07:24:39.035Z,6.74
2023-12-30T07:25:41.938Z,6.78
2023-12-30T07:26:44.164Z,6.82
2023-12-30T07:27:46.870Z,6.86
2023-12-30T07:28:49.087Z,6.86
2023-12-30T07:29:51.282Z,6.84
2023-12-30T07:30:53.554Z,6.83
2023-12-30T07:31:55.996Z,6.78
2023-12-30T07:32:58.325Z,6.84
2023-12-30T07:34:01.074Z,6.93
2023-12-30T07:35:04.841Z,6.94
2023-12-30T07:36:08.892Z,6.96
2023-12-30T07:37:11.095Z,6.94
2023-12-30T07:38:13.324Z,6.96
2023-12-30T07:39:15.506Z,6.94
2023-12-30T07:40:17.762Z,6.95
2023-12-30T07:41:19.990Z,6.93
2023-12-30T07:42:23.642Z,6.98
2023-12-30T07:43:26.450Z,7.08
2023-12-30T07:44:30.092Z,7.10
2023-12-30T07:45:32.326Z,7.03
2023-12-30T07:46:34.522Z,7.01
2023-12-30T07:47:36.829Z,7.02
2023-12-30T07:48:39.226Z,6.91
2023-12-30T07:49:41.532Z,6.88
2023-12-30T07:50:43.787Z,6.96
2023-12-30T07:51:46.585Z,6.96
2023-12-30T07:52:48.880Z,6.89
2023-12-30T07:53:51.211Z,6.96
2023-12-30T07:54:53.902Z,6.93
2023-12-30T07:55:56.127Z,6.87
2023-12-30T07:56:58.305Z,6.99
2023-12-30T07:58:00.640Z,6.96
2023-12-30T07:59:03.461Z,6.98
2023-12-30T08:00:07.523Z,7.07
2023-12-30T08:01:15.421Z,6.91
2023-12-30T08:02:17.685Z,6.95
2023-12-30T08:03:19.937Z,7.02
2023-12-30T08:04:22.101Z,7.13
2023-12-30T08:05:24.337Z,7.10
2023-12-30T08:06:26.552Z,7.14
2023-12-30T08:07:29.136Z,7.15
2023-12-30T08:08:31.409Z,7.26
2023-12-30T08:09:33.541Z,7.20
2023-12-30T08:10:35.990Z,7.27
2023-12-30T08:11:50.017Z,7.33
2023-12-30T08:13:00.661Z,7.37
2023-12-30T08:14:04.925Z,7.26
2023-12-30T08:15:09.306Z,7.36
2023-12-30T08:16:11.573Z,7.32
2023-12-30T08:17:13.810Z,7.39
2023-12-30T08:18:16.087Z,7.45
2023-12-30T08:19:18.539Z,7.43
2023-12-30T08:20:21.177Z,7.52
2023-12-30T08:21:23.422Z,7.50
2023-12-30T08:22:25.688Z,7.32
2023-12-30T08:23:27.852Z,7.45
2023-12-30T08:24:30.109Z,7.47
2023-12-30T08:25:32.328Z,7.46
2023-12-30T08:26:34.560Z,7.49
2023-12-30T08:27:37.571Z,7.54
2023-12-30T08:28:39.771Z,7.46
2023-12-30T08:29:42.022Z,7.56
2023-12-30T08:30:44.385Z,7.61
2023-12-30T08:31:47.584Z,7.61
2023-12-30T08:32:50.674Z,7.64
2023-12-30T08:33:53.163Z,7.52
2023-12-30T08:34:55.758Z,7.60
2023-12-30T08:35:58.237Z,7.54
2023-12-30T08:37:01.534Z,7.63
2023-12-30T08:38:03.776Z,7.58
2023-12-30T08:39:05.984Z,7.64
2023-12-30T08:40:12.002Z,7.80
2023-12-30T08:41:15.951Z,7.78
2023-12-30T08:42:18.165Z,7.81
2023-12-30T08:43:20.351Z,7.78
2023-12-30T08:44:22.591Z,7.59
2023-12-30T08:45:25.114Z,7.64
2023-12-30T08:46:27.451Z,7.81
2023-12-30T08:47:33.043Z,7.94
2023-12-30T08:48:35.371Z,7.81
2023-12-30T08:49:38.313Z,7.90
2023-12-30T08:50:40.573Z,7.74
2023-12-30T08:51:42.841Z,7.81
2023-12-30T08:52:45.047Z,7.82
2023-12-30T08:53:47.419Z,7.82
2023-12-30T08:54:49.980Z,7.66
2023-12-30T08:55:53.713Z,7.81
2023-12-30T08:56:56.162Z,7.72
2023-12-30T08:57:58.356Z,7.69
2023-12-30T08:59:01.629Z,7.77
2023-12-30T09:00:09.633Z,7.92
2023-12-30T09:01:11.965Z,7.79
2023-12-30T09:02:14.281Z,7.82
2023-12-30T09:03:17.835Z,7.71
2023-12-30T09:04:21.851Z,7.88
2023-12-30T09:05:24.170Z,7.79
2023-12-30T09:06:26.424Z,7.74
2023-12-30T09:07:28.594Z,7.79
2023-12-30T09:08:30.748Z,7.76
2023-12-30T09:09:33.111Z,7.79
2023-12-30T09:10:35.382Z,7.81
2023-12-30T09:11:40.870Z,7.80
2023-12-30T09:12:43.051Z,7.80
2023-12-30T09:13:45.248Z,7.80
2023-12-30T09:14:47.477Z,7.83
2023-12-30T09:15:49.899Z,7.80
2023-12-30T09:16:52.244Z,7.86
2023-12-30T09:17:56.434Z,7.85
2023-12-30T09:18:59.022Z,7.88
2023-12-30T09:20:01.938Z,7.93
2023-12-30T09:21:04.205Z,7.92
2023-12-30T09:22:08.454Z,7.92
2023-12-30T09:23:10.678Z,7.88
2023-12-30T09:24:13.048Z,7.96
2023-12-30T09:25:15.301Z,8.03
2023-12-30T09:26:18.220Z,7.95
2023-12-30T09:27:20.544Z,7.92
2023-12-30T09:28:22.822Z,7.85
2023-12-30T09:29:25.044Z,7.95
2023-12-30T09:30:27.389Z,7.94
2023-12-30T09:31:29.763Z,7.98
2023-12-30T09:32:32.096Z,8.11
2023-12-30T09:33:34.309Z,8.04
2023-12-30T09:34:41.895Z,8.06
2023-12-30T09:35:46.473Z,8.06
2023-12-30T09:36:48.760Z,8.08
2023-12-30T09:37:50.947Z,8.08
2023-12-30T09:38:53.102Z,8.08
2023-12-30T09:39:55.720Z,8.16
2023-12-30T09:40:57.980Z,8.11
2023-12-30T09:42:00.251Z,8.25
2023-12-30T09:43:06.441Z,8.50
2023-12-30T09:44:09.479Z,8.33
2023-12-30T09:45:14.053Z,8.70
2023-12-30T09:46:17.502Z,8.56
2023-12-30T09:47:20.370Z,8.54
2023-12-30T09:48:26.926Z,8.67
2023-12-30T09:49:35.382Z,8.72
2023-12-30T09:50:37.824Z,8.69
2023-12-30T09:51:40.107Z,8.77
2023-12-30T09:52:43.469Z,8.77
2023-12-30T09:53:45.711Z,8.89
2023-12-30T09:54:49.631Z,8.89
2023-12-30T09:55:52.858Z,8.95
2023-12-30T09:56:55.564Z,8.97
2023-12-30T09:57:57.944Z,9.22
2023-12-30T09:59:00.476Z,9.23
2023-12-30T10:00:06.692Z,9.19
2023-12-30T10:01:09.051Z,9.14
2023-12-30T10:02:12.055Z,9.08
2023-12-30T10:03:16.141Z,9.24
2023-12-30T10:04:18.818Z,8.98
2023-12-30T10:05:21.411Z,9.00
2023-12-30T10:06:24.861Z,8.96
2023-12-30T10:07:27.395Z,8.90
2023-12-30T10:08:31.030Z,8.84
2023-12-30T10:09:33.304Z,8.81
2023-12-30T10:10:47.274Z,9.06
2023-12-30T10:11:50.835Z,8.81
2023-12-30T10:12:53.016Z,8.73
2023-12-30T10:13:55.639Z,8.76
2023-12-30T10:14:58.010Z,8.71
2023-12-30T10:16:00.525Z,8.93
2023-12-30T10:17:05.183Z,8.82
2023-12-30T10:18:08.888Z,9.08
2023-12-30T10:19:12.312Z,9.36
2023-12-30T10:20:18.856Z,9.62
2023-12-30T10:21:21.144Z,10.12
2023-12-30T10:22:24.661Z,10.52
2023-12-30T10:23:30.888Z,10.77
2023-12-30T10:24:33.114Z,10.93
2023-12-30T10:25:36.049Z,11.05
2023-12-30T10:26:40.909Z,11.26
2023-12-30T10:27:48.400Z,11.40
2023-12-30T10:28:51.077Z,11.49
2023-12-30T10:30:00.296Z,11.66
2023-12-30T10:31:07.792Z,11.53
2023-12-30T10:32:11.680Z,11.07
2023-12-30T10:33:16.947Z,11.41
2023-12-30T10:34:22.497Z,11.46
2023-12-30T10:35:24.997Z,11.30
2023-12-30T10:36:29.224Z,11.55
2023-12-30T10:37:31.712Z,11.45
2023-12-30T10:38:36.002Z,11.78
2023-12-30T10:39:42.783Z,11.55
2023-12-30T10:40:46.058Z,11.30
2023-12-30T10:41:48.394Z,11.36
2023-12-30T10:42:50.597Z,11.20
2023-12-30T10:43:53.120Z,11.14
2023-12-30T10:44:55.399Z,11.40
2023-12-30T10:46:01.575Z,11.60
2023-12-30T10:47:05.309Z,11.69
2023-12-30T10:48:08.740Z,11.90
2023-12-30T10:49:15.222Z,11.83
2023-12-30T10:50:17.626Z,11.47
2023-12-30T10:51:28.752Z,11.83
2023-12-30T10:52:32.800Z,11.67
2023-12-30T10:53:40.921Z,11.97
2023-12-30T10:54:51.644Z,11.80
2023-12-30T10:55:57.344Z,11.75
2023-12-30T10:57:05.086Z,11.41
2023-12-30T10:58:19.787Z,11.51
2023-12-30T10:59:23.223Z,11.40
2023-12-30T11:00:28.090Z,11.81
2023-12-30T11:01:31.780Z,11.64
2023-12-30T11:02:35.811Z,11.94
2023-12-30T11:03:38.276Z,11.91
2023-12-30T11:04:40.650Z,11.96
2023-12-30T11:06:01.658Z,12.59
2023-12-30T11:07:06.872Z,12.66
2023-12-30T11:08:09.090Z,12.57
2023-12-30T11:09:15.545Z,12.70
2023-12-30T11:10:20.340Z,12.99
2023-12-30T11:11:24.040Z,13.29
2023-12-30T11:12:32.090Z,13.57
2023-12-30T11:13:38.560Z,13.82
2023-12-30T11:14:40.766Z,13.11
2023-12-30T11:15:43.072Z,13.14
2023-12-30T11:16:46.512Z,13.32
2023-12-30T11:17:50.293Z,13.46
2023-12-30T11:19:00.531Z,13.67
2023-12-30T11:20:24.399Z,13.04
2023-12-30T11:21:47.845Z,13.45
2023-12-30T11:22:50.326Z,13.04
2023-12-30T11:24:01.837Z,13.57
2023-12-30T11:25:05.538Z,13.20
2023-12-30T11:26:13.494Z,13.20
2023-12-30T11:27:17.834Z,12.95
2023-12-30T11:28:22.369Z,13.00
2023-12-30T11:29:27.131Z,13.11
2023-12-30T11:30:32.539Z,13.16
2023-12-30T11:31:40.671Z,13.26
2023-12-30T11:32:43.021Z,12.73
2023-12-30T11:33:45.348Z,12.80
2023-12-30T11:34:49.774Z,12.78
2023-12-30T11:35:55.434Z,12.84
2023-12-30T11:37:00.373Z,13.03
2023-12-30T11:38:08.325Z,12.98
2023-12-30T11:39:15.392Z,13.02
2023-12-30T11:40:20.706Z,12.97
2023-12-30T11:41:24.138Z,13.56
2023-12-30T11:42:34.001Z,13.57
2023-12-30T11:43:45.411Z,13.27
2023-12-30T11:44:48.185Z,13.46
2023-12-30T11:45:51.168Z,13.58
2023-12-30T11:46:53.694Z,13.09
2023-12-30T11:47:57.009Z,13.16
2023-12-30T11:48:59.336Z,13.14
2023-12-30T11:50:06.358Z,13.39
2023-12-30T11:51:08.724Z,12.60
2023-12-30T11:52:11.242Z,12.35
2023-12-30T11:53:13.820Z,12.05
2023-12-30T11:54:16.634Z,12.12
2023-12-30T11:55:19.012Z,12.39
2023-12-30T11:56:22.901Z,12.58
2023-12-30T11:57:27.194Z,13.10
2023-12-30T11:58:30.760Z,13.18
2023-12-30T11:59:33.112Z,13.07
2023-12-30T12:00:35.477Z,13.24
2023-12-30T12:01:37.989Z,12.94
2023-12-30T12:02:40.703Z,13.10
2023-12-30T12:03:42.980Z,13.13
2023-12-30T12:04:45.498Z,12.93
2023-12-30T12:05:49.209Z,12.80
2023-12-30T12:06:51.461Z,13.06
2023-12-30T12:07:53.669Z,13.37
2023-12-30T12:08:55.911Z,13.28
2023-12-30T12:09:58.119Z,13.25
2023-12-30T12:11:00.778Z,12.98
2023-12-30T12:12:03.054Z,12.93
2023-12-30T12:13:10.423Z,12.81
2023-12-30T12:14:14.391Z,13.10
2023-12-30T12:15:16.665Z,13.07
2023-12-30T12:16:19.769Z,13.21
2023-12-30T12:17:24.132Z,12.85
2023-12-30T12:18:26.804Z,12.69
2023-12-30T12:19:29.345Z,12.29
2023-12-30T12:20:38.735Z,12.49
2023-12-30T12:21:40.940Z,12.23
2023-12-30T12:22:43.322Z,12.53
2023-12-30T12:23:45.656Z,12.71
2023-12-30T12:24:48.530Z,12.94
2023-12-30T12:25:51.374Z,12.77
2023-12-30T12:26:54.193Z,12.70
2023-12-30T12:27:57.578Z,12.74
2023-12-30T12:28:59.747Z,12.10
2023-12-30T12:30:02.430Z,12.17
2023-12-30T12:31:07.520Z,12.78
2023-12-30T12:32:09.812Z,12.82
2023-12-30T12:33:14.398Z,12.78
2023-12-30T12:34:24.847Z,12.78
2023-12-30T12:35:27.308Z,12.75
2023-12-30T12:36:29.546Z,12.93
2023-12-30T12:37:31.928Z,13.05
2023-12-30T12:38:34.369Z,13.68
2023-12-30T12:39:37.060Z,13.81
2023-12-30T12:40:42.142Z,13.67
2023-12-30T12:41:46.268Z,13.66
2023-12-30T12:42:48.817Z,13.60
2023-12-30T12:43:51.250Z,13.73
2023-12-30T12:44:53.457Z,13.51
2023-12-30T12:45:55.798Z,13.58
2023-12-30T12:46:58.155Z,13.48
2023-12-30T12:48:00.714Z,13.51
2023-12-30T12:49:03.303Z,13.68
2023-12-30T12:50:06.211Z,13.81
2023-12-30T12:51:08.450Z,14.39
2023-12-30T12:52:11.079Z,14.30
2023-12-30T12:53:13.389Z,14.43
2023-12-30T12:54:15.563Z,14.24
2023-12-30T12:55:17.860Z,13.77
2023-12-30T12:56:20.051Z,14.11
2023-12-30T12:57:22.214Z,14.06
2023-12-30T12:58:24.505Z,13.87
2023-12-30T12:59:27.003Z,14.27
2023-12-30T13:00:29.251Z,14.34
2023-12-30T13:01:31.542Z,14.42
2023-12-30T13:02:34.166Z,14.99
2023-12-30T13:03:37.807Z,14.85
2023-12-30T13:04:42.435Z,14.11
2023-12-30T13:05:44.776Z,13.79
2023-12-30T13:06:47.503Z,13.61
2023-12-30T13:07:50.228Z,13.46
2023-12-30T13:08:57.347Z,13.29
2023-12-30T13:10:22.520Z,13.02
2023-12-30T13:11:28.368Z,12.55
2023-12-30T13:12:30.922Z,12.53
2023-12-30T13:13:33.243Z,12.62
2023-12-30T13:14:35.958Z,12.49
2023-12-30T13:15:38.757Z,12.25
2023-12-30T13:16:41.168Z,11.95
2023-12-30T13:17:46.135Z,11.99
2023-12-30T13:18:48.694Z,12.16
2023-12-30T13:19:51.917Z,11.84
2023-12-30T13:20:54.164Z,11.72
2023-12-30T13:21:56.695Z,11.40
2023-12-30T13:22:59.135Z,11.57
2023-12-30T13:24:01.460Z,11.46
2023-12-30T13:25:06.952Z,11.68
2023-12-30T13:26:09.292Z,11.49
2023-12-30T13:27:11.793Z,11.65
2023-12-30T13:28:15.912Z,11.56
2023-12-30T13:29:18.309Z,11.37
2023-12-30T13:30:24.118Z,11.22
2023-12-30T13:31:27.431Z,11.06
2023-12-30T13:32:30.531Z,10.92
2023-12-30T13:33:36.250Z,10.84
2023-12-30T13:34:41.252Z,10.86
2023-12-30T13:35:44.159Z,10.75
2023-12-30T13:36:46.612Z,10.64
2023-12-30T13:37:49.045Z,10.46
2023-12-30T13:39:00.536Z,10.49
2023-12-30T13:40:09.554Z,10.53
2023-12-30T13:41:11.823Z,10.54
2023-12-30T13:42:15.407Z,10.45
2023-12-30T13:43:17.885Z,10.36
2023-12-30T13:44:20.184Z,10.17
2023-12-30T13:45:23.455Z,10.26
2023-12-30T13:46:37.391Z,10.24
2023-12-30T13:47:45.719Z,10.33
2023-12-30T13:49:06.753Z,10.18
2023-12-30T13:50:19.302Z,10.16
2023-12-30T13:51:22.175Z,10.04
2023-12-30T13:52:24.682Z,10.01
2023-12-30T13:53:27.456Z,10.00
2023-12-30T13:54:29.768Z,10.14
2023-12-30T13:55:33.965Z,10.13